Tropical Cyclones
[Index]
Main Index Home Page Stock Weather Photos Extreme Storms Discussion Storm News and Storm Chasing Reports Tropical Cyclones / Hurricanes / Typhoons Weather Data and Links Wild Fires / Bushfires Weather Observation Techniques Weather Picture Catalogue Tornado Pictures and Reports Stock Video Footage and DVDs for sale
Season 2007-2008 Tropical Cyclone IVAN Track Map
Season 2007-2008 Summaries (Operational Data): [AU] [SIO] [SPAC] [SH]
<<- Previous TC | 2007-2008 Season | Next TC ->>

click for intensity scale information  Lat/long Grid: Show Hide

 Date Labels: Show Hide

Operational Tropical Cyclone Data : JTWC Advisories

Name: IVAN
Number: 0818

07 Feb 2008 06:00 UTC to 22 Feb 2008 12:00 UTC

    date/time    lat    long     hPa   cat  kts
2008-02-07 06   13.0    61.0     997         30          
2008-02-07 12   13.9    61.3     990    1    40          
2008-02-07 18   14.5    62.5     984    2    50          
2008-02-08 00   15.3    62.8     984    2    50          
2008-02-08 06   15.4    63.2     984    2    50          
2008-02-08 12   16.1    63.3     980    2    55          
2008-02-08 18   16.1    63.1     975    2    60          
2008-02-09 00   15.9    63.0     975    2    60          
2008-02-09 06   15.8    63.0     975    2    60          
2008-02-09 12   15.7    63.1     980    2    55          
2008-02-09 18   15.6    63.8     980    2    55          
2008-02-10 00   15.4    64.0     984    2    50          
2008-02-10 06   14.9    64.4     985    2    50          
2008-02-10 12   14.9    64.6     980    2    50          
2008-02-10 18   14.6    65.0     985    2    50          
2008-02-11 00   14.4    65.0     978    2    55          
2008-02-11 06   14.5    65.0     972    2    60          
2008-02-11 12   14.3    65.0     970    3    65          
2008-02-11 18   14.2    64.9     970    3    65          
2008-02-12 00   14.1    64.6     970    3    65          
2008-02-12 06   14.1    64.6     975    2    60          
2008-02-12 12   14.0    64.2     985    2    50          
2008-02-12 18   14.2    64.0     987    1    45          
2008-02-13 00   14.2    62.9     987    1    45          
2008-02-13 06   13.8    62.2     990    1    40          
2008-02-13 12   13.7    61.4     990    1    40          
2008-02-13 18   13.4    61.0     985    1    45          
2008-02-14 00   13.3    60.3     985    1    45          
2008-02-14 06   13.6    59.5     983    2    50          
2008-02-14 12   13.8    58.5     983    2    50          
2008-02-14 18   14.1    57.6     980    2    55          
2008-02-15 00   14.8    56.4     975    2    60          
2008-02-15 06   15.2    55.7     975    2    60          
2008-02-15 12   15.6    54.7     970    3    65          
2008-02-15 18   16.2    54.1     966    3    65          
2008-02-16 00   16.4    53.3     960    3    70          
2008-02-16 06   16.2    52.6     955    3    75          
2008-02-16 12   16.5    51.9     941    4    90          
2008-02-16 18   16.7    51.1     930    4   100          
2008-02-17 00   17.0    50.5     930    4   100          
2008-02-17 06   17.2    49.5     935    4    95          
2008-02-17 12   17.2    48.8            1    40          
2008-02-17 18   17.3    47.9                 30          
2008-02-18 00   17.7    47.0                 30          
2008-02-18 06   18.4    46.0                 25          
2008-02-18 12   19.9    45.3                 20          
2008-02-18 18   19.4    45.7                             
2008-02-19 00   20.9    44.1                 15          
2008-02-19 06   21.6    43.5                 15          
2008-02-19 12   22.3    43.2                 15          
2008-02-19 18   22.5    43.1                 15          
2008-02-20 00   22.8    42.9                 15          
2008-02-20 06   23.0    42.8                 15          
2008-02-20 12   23.2    42.7                 15          
2008-02-20 18   23.4    42.4                 15          
2008-02-21 00   23.3    42.2     998         25          
2008-02-21 06   22.4    42.0                 25          
2008-02-22 12   21.8    41.6     998         30          
Winds are 10-min average.

Tropical cyclone tracks developed by Michael Bath using operational warnings and advisories and Google Maps.


[Australian Severe Weather index] [Copyright Notice] [Email Contacts] [Search This Site] [Privacy Policy]
Document: tropical_cyclone_ivan.htm Updated: 2 May 2017